Overview Statistics Trail Chart Weather Telemetry Raw packets
 

This is the latest recevied weather packets stored in our database for station/object EW8GT-13. If no packets are shown the sender has not sent any weather packets the latest 10 day(s).

<< 4 5 6 7 >>
Time Temp. Humidity Pressure Rain* Wind** Luminosity Snow
1777277907 6.11° C 50% 994.7 hPa - - - -
1777277546 6.11° C 51% 994.8 hPa - - - -
1777277185 6.67° C 50% 994.7 hPa - - - -
1777276824 6.67° C 49% 994.5 hPa - - - -
1777276463 5.56° C 52% 994.7 hPa - - - -
1777045447 8.33° C 38% 991.4 hPa - - - -
1777045086 8.33° C 38% 991.4 hPa - - - -
1777044725 8.33° C 38% 991.4 hPa - - - -
1777044364 8.33° C 38% 991.4 hPa - - - -
1777044003 8.33° C 38% 991.4 hPa - - - -
1777043641 8.33° C 38% 991.4 hPa - - - -
1777043280 8.33° C 38% 991.4 hPa - - - -
1777042919 8.33° C 38% 991.4 hPa - - - -
1777042558 8.33° C 38% 991.4 hPa - - - -
1777042197 8.33° C 38% 991.4 hPa - - - -
1777041835 8.33° C 38% 991.4 hPa - - - -
1777041474 8.33° C 38% 991.4 hPa - - - -
1777041113 8.33° C 38% 991.4 hPa - - - -
1777040752 8.33° C 38% 991.4 hPa - - - -
1777040390 8.33° C 38% 991.4 hPa - - - -
1777040028 8.33° C 39% 991.4 hPa - - - -
1777039667 7.78° C 37% 991.3 hPa - - - -
1777039306 8.33° C 38% 991.4 hPa - - - -
1777038944 8.33° C 38% 991.3 hPa - - - -

* Rain since midnight (hover to see other rain measurements)
** Current wind speed in m/s (hover to see current wind gust speed)